createdAt,value
2019-03-13T00:00:44.599Z,8.16
2019-03-13T00:03:20.970Z,8.14
2019-03-13T00:05:54.798Z,7.82
2019-03-13T00:08:30.960Z,7.23
2019-03-13T00:11:06.646Z,6.86
2019-03-13T00:13:40.353Z,6.59
2019-03-13T00:16:18.226Z,6.36
2019-03-13T00:18:51.866Z,6.12
2019-03-13T00:21:25.610Z,6.05
2019-03-13T00:23:59.320Z,5.94
2019-03-13T00:26:33.068Z,5.90
2019-03-13T00:29:06.823Z,5.90
2019-03-13T00:31:42.562Z,5.79
2019-03-13T00:34:16.368Z,5.79
2019-03-13T00:36:50.459Z,5.79
2019-03-13T00:39:24.270Z,5.66
2019-03-13T00:41:59.950Z,5.64
2019-03-13T00:44:38.003Z,5.64
2019-03-13T00:47:12.175Z,5.54
2019-03-13T00:49:46.237Z,5.58
2019-03-13T00:52:21.261Z,5.61
2019-03-13T00:54:54.909Z,5.49
2019-03-13T00:57:29.791Z,5.53
2019-03-13T01:00:03.605Z,5.39
2019-03-13T01:02:39.526Z,5.47
2019-03-13T01:05:21.327Z,5.45
2019-03-13T01:07:57.274Z,5.48
2019-03-13T01:10:33.140Z,5.48
2019-03-13T01:13:06.992Z,5.47
2019-03-13T01:15:42.184Z,5.38
2019-03-13T01:18:16.097Z,5.41
2019-03-13T01:20:50.147Z,5.45
2019-03-13T01:23:24.930Z,5.39
2019-03-13T01:26:01.506Z,5.33
2019-03-13T01:28:35.286Z,5.25
2019-03-13T01:31:36.646Z,5.18
2019-03-13T01:34:32.763Z,5.22
2019-03-13T01:37:06.571Z,4.99
2019-03-13T01:39:40.332Z,5.02
2019-03-13T01:42:14.276Z,5.05
2019-03-13T01:44:49.063Z,4.96
2019-03-13T01:47:24.564Z,4.97
2019-03-13T01:49:58.273Z,4.98
2019-03-13T01:52:32.424Z,4.89
2019-03-13T01:55:06.722Z,5.04
2019-03-13T01:57:43.009Z,4.97
2019-03-13T02:00:18.931Z,5.03
2019-03-13T02:02:54.801Z,5.14
2019-03-13T02:05:30.940Z,5.19
2019-03-13T02:08:04.994Z,5.16
2019-03-13T02:10:39.783Z,5.10
2019-03-13T02:13:14.282Z,5.19
2019-03-13T02:15:48.559Z,5.28
2019-03-13T02:18:26.322Z,5.25
2019-03-13T02:21:07.697Z,5.30
2019-03-13T02:23:42.705Z,5.22
2019-03-13T02:26:17.983Z,5.26
2019-03-13T02:28:52.094Z,5.39
2019-03-13T02:31:25.972Z,5.31
2019-03-13T02:34:00.077Z,5.32
2019-03-13T02:36:34.195Z,5.24
2019-03-13T02:39:09.624Z,5.30
2019-03-13T02:41:43.555Z,5.33
2019-03-13T02:44:18.441Z,5.37
2019-03-13T02:46:52.310Z,5.36
2019-03-13T02:49:26.474Z,5.36
2019-03-13T02:52:00.258Z,5.39
2019-03-13T02:54:33.963Z,5.43
2019-03-13T02:57:07.711Z,5.38
2019-03-13T02:59:42.292Z,5.38
2019-03-13T03:02:33.703Z,5.30
2019-03-13T03:05:08.174Z,5.33
2019-03-13T03:07:42.043Z,5.24
2019-03-13T03:10:15.883Z,5.24
2019-03-13T03:12:49.506Z,5.11
2019-03-13T03:15:23.364Z,5.06
2019-03-13T03:17:59.404Z,4.95
2019-03-13T03:20:37.935Z,4.90
2019-03-13T03:23:11.723Z,4.75
2019-03-13T03:25:46.942Z,4.79
2019-03-13T03:28:22.862Z,4.72
2019-03-13T03:30:56.782Z,4.61
2019-03-13T03:33:30.545Z,4.55
2019-03-13T03:36:05.279Z,4.56
2019-03-13T03:38:45.303Z,4.46
2019-03-13T03:41:18.977Z,4.51
2019-03-13T03:43:54.195Z,4.43
2019-03-13T03:46:28.019Z,4.38
2019-03-13T03:49:02.089Z,4.46
2019-03-13T03:51:35.795Z,4.34
2019-03-13T03:54:09.511Z,4.28
2019-03-13T03:56:44.997Z,4.33
2019-03-13T03:59:18.844Z,4.28
2019-03-13T04:01:52.582Z,4.28
2019-03-13T04:04:26.376Z,4.32
2019-03-13T04:07:00.104Z,4.39
2019-03-13T04:09:35.645Z,4.44
2019-03-13T04:12:09.484Z,4.48
2019-03-13T04:14:45.093Z,4.50
2019-03-13T04:17:19.930Z,4.44
2019-03-13T04:19:53.860Z,4.49
2019-03-13T04:22:28.788Z,4.40
2019-03-13T04:25:38.465Z,4.46
2019-03-13T04:28:12.524Z,4.52
2019-03-13T04:30:46.609Z,4.61
2019-03-13T04:33:20.535Z,4.64
2019-03-13T04:35:54.269Z,4.76
2019-03-13T04:38:28.032Z,4.79
2019-03-13T04:41:02.136Z,4.87
2019-03-13T04:43:35.861Z,4.85
2019-03-13T04:46:09.462Z,4.93
2019-03-13T04:48:43.127Z,4.92
2019-03-13T04:51:16.943Z,5.00
2019-03-13T04:53:51.914Z,4.99
2019-03-13T04:56:26.660Z,5.01
2019-03-13T04:59:01.427Z,4.97
2019-03-13T05:01:38.348Z,5.07
2019-03-13T05:04:13.763Z,5.03
2019-03-13T05:06:47.374Z,5.06
2019-03-13T05:09:39.112Z,5.08
2019-03-13T05:12:12.893Z,5.11
2019-03-13T05:14:46.786Z,5.08
2019-03-13T05:17:23.660Z,5.19
2019-03-13T05:19:58.513Z,5.22
2019-03-13T05:22:34.496Z,5.12
2019-03-13T05:25:09.535Z,5.20
2019-03-13T05:27:43.372Z,5.19
2019-03-13T05:30:19.295Z,5.20
2019-03-13T05:32:53.118Z,5.28
2019-03-13T05:35:26.917Z,5.31
2019-03-13T05:38:01.082Z,5.29
2019-03-13T05:40:35.349Z,5.32
2019-03-13T05:43:09.495Z,5.38
2019-03-13T05:45:44.428Z,5.46
2019-03-13T05:48:19.943Z,5.43
2019-03-13T05:50:55.838Z,5.50
2019-03-13T05:53:30.996Z,5.51
2019-03-13T05:56:07.835Z,5.57
2019-03-13T05:58:41.795Z,5.62
2019-03-13T06:01:17.852Z,5.56
2019-03-13T06:03:53.082Z,5.64
2019-03-13T06:06:28.722Z,5.63
2019-03-13T06:09:03.129Z,5.63
2019-03-13T06:11:37.316Z,5.71
2019-03-13T06:14:11.185Z,5.75
2019-03-13T06:16:45.019Z,5.76
2019-03-13T06:19:19.781Z,5.78
2019-03-13T06:21:54.795Z,5.83
2019-03-13T06:24:28.423Z,5.88
2019-03-13T06:27:02.257Z,5.86
2019-03-13T06:29:36.017Z,5.92
2019-03-13T06:32:11.667Z,5.94
2019-03-13T06:34:45.332Z,5.99
2019-03-13T06:37:19.149Z,5.97
2019-03-13T06:39:52.915Z,6.11
2019-03-13T06:42:27.127Z,6.09
2019-03-13T06:45:01.225Z,6.16
2019-03-13T06:47:35.074Z,6.20
2019-03-13T06:50:13.376Z,6.20
2019-03-13T06:52:48.244Z,6.17
2019-03-13T06:55:21.995Z,6.22
2019-03-13T06:57:58.033Z,6.25
2019-03-13T07:00:58.959Z,6.28
2019-03-13T07:04:04.603Z,6.33
2019-03-13T07:06:59.172Z,6.33
2019-03-13T07:09:55.189Z,6.37
2019-03-13T07:12:51.614Z,6.38
2019-03-13T07:16:02.467Z,6.34
2019-03-13T07:18:42.003Z,6.38
2019-03-13T07:21:39.346Z,6.44
2019-03-13T07:24:27.789Z,6.48
2019-03-13T07:27:14.290Z,6.48
2019-03-13T07:30:03.036Z,6.41
2019-03-13T07:32:58.537Z,6.49
2019-03-13T07:35:58.524Z,6.44
2019-03-13T07:38:56.824Z,6.50
2019-03-13T07:41:47.808Z,6.47
2019-03-13T07:44:48.434Z,6.52
2019-03-13T07:47:45.878Z,6.53
2019-03-13T07:50:35.545Z,6.60
2019-03-13T07:53:25.027Z,6.74
2019-03-13T07:56:17.848Z,6.79
2019-03-13T07:59:13.864Z,6.78
2019-03-13T08:02:13.869Z,6.95
2019-03-13T08:05:05.387Z,7.00
2019-03-13T08:07:49.223Z,7.05
2019-03-13T08:10:51.168Z,7.23
2019-03-13T08:13:42.371Z,8.11
2019-03-13T08:16:41.156Z,7.77
2019-03-13T08:19:28.161Z,8.01
2019-03-13T08:22:29.802Z,8.35
2019-03-13T08:25:11.391Z,9.06
2019-03-13T08:28:19.172Z,9.14
2019-03-13T08:31:17.540Z,8.61
2019-03-13T08:34:13.145Z,8.14
2019-03-13T08:37:17.651Z,7.90
2019-03-13T08:40:10.400Z,8.02
2019-03-13T08:43:03.028Z,8.14
2019-03-13T08:45:53.416Z,9.73
2019-03-13T08:48:57.308Z,9.16
2019-03-13T08:55:11.545Z,7.96
2019-03-13T08:58:04.590Z,7.75
2019-03-13T09:00:44.437Z,7.77
2019-03-13T09:03:42.807Z,7.80
2019-03-13T09:06:45.573Z,7.81
2019-03-13T09:09:39.129Z,7.79
2019-03-13T09:12:40.878Z,7.72
2019-03-13T09:15:31.978Z,7.75
2019-03-13T09:18:27.483Z,7.62
2019-03-13T09:21:18.910Z,7.60
2019-03-13T09:24:20.993Z,7.52
2019-03-13T09:27:19.415Z,7.61
2019-03-13T09:30:15.450Z,7.79
2019-03-13T09:33:26.380Z,7.84
2019-03-13T09:36:34.776Z,7.87
2019-03-13T09:39:24.452Z,7.86
2019-03-13T09:42:20.393Z,7.80
2019-03-13T09:45:20.981Z,7.69
2019-03-13T09:48:03.896Z,7.66
2019-03-13T09:50:44.577Z,7.82
2019-03-13T09:53:37.297Z,8.04
2019-03-13T09:56:34.742Z,7.96
2019-03-13T09:59:42.375Z,8.01
2019-03-13T10:02:23.293Z,8.15
2019-03-13T10:05:28.110Z,8.20
2019-03-13T10:08:25.455Z,8.15
2019-03-13T10:11:11.027Z,8.31
2019-03-13T10:14:06.586Z,8.11
2019-03-13T10:17:09.830Z,8.12
2019-03-13T10:20:07.566Z,8.02
2019-03-13T10:23:03.788Z,8.02
2019-03-13T10:26:05.967Z,7.90
2019-03-13T10:29:01.955Z,7.85
2019-03-13T10:31:57.463Z,7.89
2019-03-13T10:34:48.768Z,7.88
2019-03-13T10:37:40.795Z,7.83
2019-03-13T10:40:39.625Z,7.72
2019-03-13T10:43:35.584Z,7.70
2019-03-13T10:46:29.251Z,7.68
2019-03-13T10:49:22.181Z,7.61
2019-03-13T10:52:08.985Z,7.56
2019-03-13T10:55:00.179Z,7.56
2019-03-13T10:57:55.899Z,7.64
2019-03-13T11:00:48.651Z,7.80
2019-03-13T11:03:33.908Z,7.84
2019-03-13T11:06:54.045Z,7.83
2019-03-13T11:09:36.115Z,7.88
2019-03-13T11:12:17.569Z,8.00
2019-03-13T11:15:10.072Z,7.99
2019-03-13T11:18:03.879Z,7.97
2019-03-13T11:21:13.681Z,8.22
2019-03-13T11:24:15.323Z,8.51
2019-03-13T11:30:04.893Z,8.40
2019-03-13T11:32:57.636Z,8.52
2019-03-13T11:35:50.933Z,8.60
2019-03-13T11:38:46.491Z,8.94
2019-03-13T11:41:39.044Z,9.18
2019-03-13T11:44:30.541Z,9.43
2019-03-13T11:47:12.633Z,9.47
2019-03-13T11:50:00.430Z,9.54
2019-03-13T11:52:55.872Z,10.01
2019-03-13T11:55:38.164Z,10.08
2019-03-13T11:58:20.463Z,9.40
2019-03-13T12:01:19.242Z,8.98
2019-03-13T12:04:13.093Z,8.64
2019-03-13T12:07:03.186Z,8.16
2019-03-13T12:09:49.169Z,8.07
2019-03-13T12:12:41.914Z,8.00
2019-03-13T12:15:26.667Z,7.97
2019-03-13T12:18:28.166Z,7.98
2019-03-13T12:21:16.872Z,7.95
2019-03-13T12:24:15.634Z,7.91
2019-03-13T12:26:56.818Z,7.78
2019-03-13T12:29:48.114Z,7.86
2019-03-13T12:32:44.024Z,7.93
2019-03-13T12:35:36.765Z,7.95
2019-03-13T12:38:21.217Z,7.93
2019-03-13T12:41:12.425Z,7.93
2019-03-13T12:47:19.084Z,7.68
2019-03-13T12:50:13.767Z,7.72
2019-03-13T12:53:09.576Z,7.73
2019-03-13T12:56:17.359Z,7.74
2019-03-13T12:58:57.512Z,7.74
2019-03-13T13:02:02.332Z,7.81
2019-03-13T13:04:57.935Z,7.85
2019-03-13T13:07:49.342Z,7.83
2019-03-13T13:10:40.453Z,7.96
2019-03-13T13:13:36.560Z,7.89
2019-03-13T13:16:38.718Z,7.89
2019-03-13T13:19:12.804Z,7.98
2019-03-13T13:21:46.875Z,7.93
2019-03-13T13:24:21.918Z,8.01
2019-03-13T13:26:55.920Z,7.99
2019-03-13T13:29:29.902Z,8.31
2019-03-13T13:32:05.457Z,8.51
2019-03-13T13:34:39.082Z,8.87
2019-03-13T13:37:12.698Z,8.87
2019-03-13T13:39:47.919Z,8.78
2019-03-13T13:42:23.690Z,8.76
2019-03-13T13:44:57.458Z,8.55
2019-03-13T13:47:32.980Z,8.39
2019-03-13T13:50:08.043Z,8.24
2019-03-13T13:52:42.975Z,8.21
2019-03-13T13:55:17.097Z,8.06
2019-03-13T13:57:52.293Z,8.07
2019-03-13T14:00:26.044Z,8.08
2019-03-13T14:02:59.990Z,8.07
2019-03-13T14:05:34.779Z,8.04
2019-03-13T14:08:09.742Z,8.00
2019-03-13T14:10:43.673Z,8.00
2019-03-13T14:13:18.563Z,7.93
2019-03-13T14:15:55.494Z,7.88
2019-03-13T14:18:29.598Z,7.90
2019-03-13T14:21:03.499Z,7.86
2019-03-13T14:23:37.339Z,7.92
2019-03-13T14:26:11.142Z,7.89
2019-03-13T14:28:45.070Z,7.83
2019-03-13T14:31:18.728Z,7.70
2019-03-13T14:33:52.692Z,7.69
2019-03-13T14:36:26.612Z,7.56
2019-03-13T14:39:00.528Z,7.50
2019-03-13T14:41:34.378Z,7.38
2019-03-13T14:44:08.150Z,7.45
2019-03-13T14:46:43.790Z,7.42
2019-03-13T14:49:19.443Z,7.38
2019-03-13T14:51:53.511Z,7.34
2019-03-13T14:54:27.215Z,7.30
2019-03-13T14:57:01.247Z,7.18
2019-03-13T14:59:34.973Z,7.03
2019-03-13T15:02:10.737Z,6.90
2019-03-13T15:04:44.656Z,6.69
2019-03-13T15:07:19.674Z,6.65
2019-03-13T15:09:53.418Z,6.62
2019-03-13T15:12:27.871Z,6.64
2019-03-13T15:15:01.621Z,6.65
2019-03-13T15:17:36.749Z,6.54
2019-03-13T15:20:15.660Z,6.62
2019-03-13T15:22:49.414Z,6.63
2019-03-13T15:25:23.355Z,6.65
2019-03-13T15:27:57.629Z,6.68
2019-03-13T15:30:31.621Z,6.67
2019-03-13T15:33:05.720Z,6.75
2019-03-13T15:35:43.329Z,6.71
2019-03-13T15:38:18.359Z,6.82
2019-03-13T15:40:53.617Z,6.93
2019-03-13T15:43:28.735Z,6.88
2019-03-13T15:46:02.860Z,6.85
2019-03-13T15:48:36.652Z,6.83
2019-03-13T15:51:12.975Z,6.79
2019-03-13T15:53:48.247Z,6.79
2019-03-13T15:56:23.125Z,6.81
2019-03-13T15:58:57.364Z,6.84
2019-03-13T16:01:31.233Z,6.83
2019-03-13T16:04:06.779Z,6.88
2019-03-13T16:06:40.659Z,6.89
2019-03-13T16:09:14.594Z,6.80
2019-03-13T16:11:49.177Z,6.86
2019-03-13T16:14:23.158Z,6.89
2019-03-13T16:16:59.387Z,7.01
2019-03-13T16:19:33.572Z,6.92
2019-03-13T16:22:08.881Z,6.88
2019-03-13T16:24:43.280Z,6.86
2019-03-13T16:27:17.500Z,6.83
2019-03-13T16:29:52.939Z,6.83
2019-03-13T16:32:26.973Z,6.72
2019-03-13T16:35:00.984Z,6.74
2019-03-13T16:37:34.892Z,6.70
2019-03-13T16:40:10.898Z,6.65
2019-03-13T16:42:47.413Z,6.65
2019-03-13T16:45:22.936Z,6.62
2019-03-13T16:47:56.984Z,6.63
2019-03-13T16:50:32.523Z,6.61
2019-03-13T16:53:08.027Z,6.61
2019-03-13T16:55:41.806Z,6.57
2019-03-13T16:58:15.895Z,6.55
2019-03-13T17:00:50.767Z,6.61
2019-03-13T17:03:24.827Z,6.53
2019-03-13T17:05:58.953Z,6.43
2019-03-13T17:08:33.973Z,6.41
2019-03-13T17:11:09.332Z,6.39
2019-03-13T17:13:44.853Z,6.43
2019-03-13T17:16:19.967Z,6.26
2019-03-13T17:18:53.704Z,6.33
2019-03-13T17:21:27.530Z,6.26
2019-03-13T17:24:03.362Z,6.23
2019-03-13T17:26:37.117Z,6.09
2019-03-13T17:29:12.732Z,6.09
2019-03-13T17:31:46.751Z,6.00
2019-03-13T17:34:20.499Z,6.02
2019-03-13T17:36:55.444Z,5.94
2019-03-13T17:39:29.381Z,5.96
2019-03-13T17:42:03.263Z,5.99
2019-03-13T17:44:37.244Z,5.99
2019-03-13T17:47:10.955Z,5.98
2019-03-13T17:49:44.734Z,5.92
2019-03-13T17:52:20.290Z,6.03
2019-03-13T17:54:53.926Z,6.01
2019-03-13T17:57:27.736Z,5.99
2019-03-13T18:00:02.629Z,5.97
2019-03-13T18:02:36.831Z,5.99
2019-03-13T18:05:10.943Z,5.92
2019-03-13T18:07:44.896Z,5.93
2019-03-13T18:10:19.868Z,5.88
2019-03-13T18:12:55.766Z,5.85
2019-03-13T18:15:29.642Z,5.85
2019-03-13T18:18:04.858Z,5.84
2019-03-13T18:20:40.407Z,5.89
2019-03-13T18:23:14.603Z,5.88
2019-03-13T18:25:49.714Z,5.88
2019-03-13T18:28:23.718Z,5.94
2019-03-13T18:30:57.890Z,5.91
2019-03-13T18:33:35.845Z,5.89
2019-03-13T18:36:13.955Z,5.90
2019-03-13T18:38:50.427Z,5.91
2019-03-13T18:41:24.702Z,5.89
2019-03-13T18:43:59.351Z,5.88
2019-03-13T18:46:33.106Z,5.82
2019-03-13T18:49:06.945Z,5.83
2019-03-13T18:51:40.755Z,5.77
2019-03-13T18:54:14.572Z,5.78
2019-03-13T18:56:48.628Z,5.78
2019-03-13T18:59:23.777Z,5.80
2019-03-13T19:01:59.434Z,5.79
2019-03-13T19:04:36.248Z,5.75
2019-03-13T19:07:12.547Z,5.73
2019-03-13T19:09:46.922Z,5.66
2019-03-13T19:12:20.959Z,5.68
2019-03-13T19:14:59.493Z,5.56
2019-03-13T19:17:33.616Z,5.58
2019-03-13T19:20:11.761Z,5.58
2019-03-13T19:22:44.795Z,5.60
2019-03-13T19:25:20.816Z,5.61
2019-03-13T19:27:54.880Z,5.62
2019-03-13T19:30:30.581Z,5.58
2019-03-13T19:33:05.073Z,5.62
2019-03-13T19:35:40.036Z,5.67
2019-03-13T19:38:14.051Z,5.61
2019-03-13T19:40:48.848Z,5.65
2019-03-13T19:43:24.663Z,5.67
2019-03-13T19:45:59.524Z,5.66
2019-03-13T19:48:33.899Z,5.75
2019-03-13T19:51:08.354Z,5.70
2019-03-13T19:53:44.531Z,5.70
2019-03-13T19:56:21.725Z,5.72
2019-03-13T19:58:57.747Z,5.81
2019-03-13T20:01:33.813Z,5.87
2019-03-13T20:04:09.378Z,5.82
2019-03-13T20:06:43.590Z,5.89
2019-03-13T20:09:17.758Z,5.98
2019-03-13T20:11:52.011Z,6.13
2019-03-13T20:14:27.353Z,6.13
2019-03-13T20:17:01.228Z,6.13
2019-03-13T20:19:35.055Z,6.17
2019-03-13T20:22:12.310Z,6.19
2019-03-13T20:24:47.499Z,6.26
2019-03-13T20:27:21.996Z,6.27
2019-03-13T20:29:57.278Z,6.30
2019-03-13T20:32:33.091Z,6.30
2019-03-13T20:35:07.751Z,6.25
2019-03-13T20:37:41.696Z,6.37
2019-03-13T20:40:19.573Z,6.27
2019-03-13T20:42:53.315Z,6.33
2019-03-13T20:45:27.884Z,6.36
2019-03-13T20:48:03.475Z,6.41
2019-03-13T20:50:38.228Z,6.40
2019-03-13T20:53:12.766Z,6.44
2019-03-13T20:55:46.690Z,6.50
2019-03-13T20:58:21.073Z,6.41
2019-03-13T21:00:56.356Z,6.42
2019-03-13T21:03:31.620Z,6.54
2019-03-13T21:06:05.888Z,6.47
2019-03-13T21:08:40.858Z,6.48
2019-03-13T21:11:15.659Z,6.48
2019-03-13T21:13:49.580Z,6.48
2019-03-13T21:16:24.652Z,6.43
2019-03-13T21:18:58.966Z,6.37
2019-03-13T21:21:33.359Z,6.41
2019-03-13T21:24:07.436Z,6.37
2019-03-13T21:26:42.095Z,6.28
2019-03-13T21:29:15.833Z,6.30
2019-03-13T21:31:49.895Z,6.28
2019-03-13T21:34:24.756Z,6.25
2019-03-13T21:36:59.700Z,6.31
2019-03-13T21:39:33.875Z,6.35
2019-03-13T21:42:07.776Z,6.38
2019-03-13T21:44:43.110Z,6.43
2019-03-13T21:47:16.770Z,6.44
2019-03-13T21:49:50.771Z,6.48
2019-03-13T21:52:26.356Z,6.51
2019-03-13T21:55:00.489Z,6.43
2019-03-13T21:57:34.807Z,6.42
2019-03-13T22:00:21.713Z,6.40
2019-03-13T22:02:55.950Z,6.44
2019-03-13T22:05:31.232Z,6.39
2019-03-13T22:08:05.278Z,6.40
2019-03-13T22:10:39.330Z,6.36
2019-03-13T22:13:13.273Z,6.35
2019-03-13T22:15:47.093Z,6.40
2019-03-13T22:18:21.095Z,6.29
2019-03-13T22:20:55.071Z,6.30
2019-03-13T22:23:30.757Z,6.30
2019-03-13T22:26:04.480Z,6.40
2019-03-13T22:28:38.240Z,6.47
2019-03-13T22:31:12.004Z,6.35
2019-03-13T22:33:46.111Z,6.34
2019-03-13T22:36:19.840Z,6.38
2019-03-13T22:38:53.941Z,6.38
2019-03-13T22:41:27.549Z,6.31
2019-03-13T22:44:01.995Z,6.34
2019-03-13T22:46:36.969Z,6.30
2019-03-13T22:49:10.744Z,6.26
2019-03-13T22:51:44.539Z,6.27
2019-03-13T22:54:20.252Z,6.23
2019-03-13T22:56:55.622Z,6.14
2019-03-13T22:59:29.386Z,6.16
2019-03-13T23:02:03.333Z,6.12
2019-03-13T23:04:38.664Z,6.01
2019-03-13T23:07:12.380Z,5.98
2019-03-13T23:09:46.235Z,5.97
2019-03-13T23:12:20.309Z,5.86
2019-03-13T23:14:54.454Z,5.90
2019-03-13T23:17:28.190Z,5.85
2019-03-13T23:20:02.056Z,5.93
2019-03-13T23:22:37.851Z,5.88
2019-03-13T23:25:11.568Z,5.96
2019-03-13T23:27:45.312Z,6.07
2019-03-13T23:30:20.586Z,6.05
2019-03-13T23:32:54.287Z,6.01
2019-03-13T23:35:28.187Z,6.15
2019-03-13T23:38:02.057Z,6.07
2019-03-13T23:40:35.926Z,6.09
2019-03-13T23:43:09.696Z,6.04
2019-03-13T23:45:45.178Z,6.14
2019-03-13T23:48:20.344Z,6.15
2019-03-13T23:50:54.227Z,6.18
2019-03-13T23:53:27.950Z,6.07
2019-03-13T23:56:02.769Z,6.23
2019-03-13T23:58:36.533Z,6.16
